sensor_id;sensor_type;location;lat;lon;timestamp;P1;durP1;ratioP1;P2;durP2;ratioP2
49460;SDS011;35355;49.198;-0.368;2022-07-29T00:02:11;6.93;;;2.33;;
49460;SDS011;35355;49.198;-0.368;2022-07-29T00:04:36;5.32;;;1.88;;
49460;SDS011;35355;49.198;-0.368;2022-07-29T00:07:03;6.68;;;2.20;;
49460;SDS011;35355;49.198;-0.368;2022-07-29T00:09:30;7.57;;;2.38;;
49460;SDS011;35355;49.198;-0.368;2022-07-29T00:11:57;5.88;;;1.80;;
49460;SDS011;35355;49.198;-0.368;2022-07-29T00:14:24;5.53;;;1.95;;
49460;SDS011;35355;49.198;-0.368;2022-07-29T00:16:50;6.40;;;1.73;;
49460;SDS011;35355;49.198;-0.368;2022-07-29T00:19:16;10.38;;;2.10;;
49460;SDS011;35355;49.198;-0.368;2022-07-29T00:21:41;4.50;;;2.17;;
49460;SDS011;35355;49.198;-0.368;2022-07-29T00:24:07;5.03;;;1.75;;
49460;SDS011;35355;49.198;-0.368;2022-07-29T00:26:32;6.10;;;2.75;;
49460;SDS011;35355;49.198;-0.368;2022-07-29T00:28:59;5.50;;;2.00;;
49460;SDS011;35355;49.198;-0.368;2022-07-29T00:31:25;5.95;;;1.98;;
49460;SDS011;35355;49.198;-0.368;2022-07-29T00:33:51;4.25;;;1.77;;
49460;SDS011;35355;49.198;-0.368;2022-07-29T00:36:16;8.45;;;1.90;;
49460;SDS011;35355;49.198;-0.368;2022-07-29T00:38:42;2.83;;;1.98;;
49460;SDS011;35355;49.198;-0.368;2022-07-29T00:41:10;6.35;;;1.85;;
49460;SDS011;35355;49.198;-0.368;2022-07-29T00:43:36;7.75;;;2.08;;
49460;SDS011;35355;49.198;-0.368;2022-07-29T00:46:01;6.38;;;2.45;;
49460;SDS011;35355;49.198;-0.368;2022-07-29T00:48:27;10.63;;;2.20;;
49460;SDS011;35355;49.198;-0.368;2022-07-29T00:50:52;6.32;;;2.28;;
49460;SDS011;35355;49.198;-0.368;2022-07-29T00:53:18;3.33;;;2.15;;
49460;SDS011;35355;49.198;-0.368;2022-07-29T00:55:45;6.80;;;2.00;;
49460;SDS011;35355;49.198;-0.368;2022-07-29T00:58:11;3.20;;;1.80;;
49460;SDS011;35355;49.198;-0.368;2022-07-29T01:00:38;11.05;;;1.95;;
49460;SDS011;35355;49.198;-0.368;2022-07-29T01:03:05;7.07;;;2.15;;
49460;SDS011;35355;49.198;-0.368;2022-07-29T01:05:31;10.85;;;2.80;;
49460;SDS011;35355;49.198;-0.368;2022-07-29T01:07:58;7.10;;;2.90;;
49460;SDS011;35355;49.198;-0.368;2022-07-29T01:10:24;7.07;;;2.33;;
49460;SDS011;35355;49.198;-0.368;2022-07-29T01:12:51;8.07;;;2.22;;
49460;SDS011;35355;49.198;-0.368;2022-07-29T01:15:19;9.68;;;2.50;;
49460;SDS011;35355;49.198;-0.368;2022-07-29T01:22:54;4.88;;;2.08;;
49460;SDS011;35355;49.198;-0.368;2022-07-29T01:28:58;7.75;;;2.13;;
49460;SDS011;35355;49.198;-0.368;2022-07-29T01:32:14;9.13;;;2.20;;
49460;SDS011;35355;49.198;-0.368;2022-07-29T01:34:25;12.43;;;2.65;;
49460;SDS011;35355;49.198;-0.368;2022-07-29T01:36:55;6.90;;;1.90;;
49460;SDS011;35355;49.198;-0.368;2022-07-29T01:39:41;8.63;;;2.85;;
49460;SDS011;35355;49.198;-0.368;2022-07-29T01:44:57;3.00;;;2.10;;
49460;SDS011;35355;49.198;-0.368;2022-07-29T01:48:12;8.00;;;2.22;;
49460;SDS011;35355;49.198;-0.368;2022-07-29T01:50:33;2.50;;;1.98;;
49460;SDS011;35355;49.198;-0.368;2022-07-29T01:53:06;7.30;;;2.90;;
49460;SDS011;35355;49.198;-0.368;2022-07-29T01:55:38;6.03;;;2.47;;
49460;SDS011;35355;49.198;-0.368;2022-07-29T01:58:06;4.68;;;1.85;;
49460;SDS011;35355;49.198;-0.368;2022-07-29T02:00:34;3.88;;;2.20;;
49460;SDS011;35355;49.198;-0.368;2022-07-29T02:03:02;6.25;;;2.70;;
49460;SDS011;35355;49.198;-0.368;2022-07-29T02:05:30;13.18;;;2.88;;
49460;SDS011;35355;49.198;-0.368;2022-07-29T02:07:59;7.03;;;2.22;;
49460;SDS011;35355;49.198;-0.368;2022-07-29T02:10:27;5.03;;;2.30;;
49460;SDS011;35355;49.198;-0.368;2022-07-29T02:12:54;10.15;;;2.90;;
49460;SDS011;35355;49.198;-0.368;2022-07-29T02:15:22;6.40;;;2.30;;
49460;SDS011;35355;49.198;-0.368;2022-07-29T02:17:52;7.40;;;2.80;;
49460;SDS011;35355;49.198;-0.368;2022-07-29T02:20:30;7.15;;;2.67;;
49460;SDS011;35355;49.198;-0.368;2022-07-29T02:22:56;12.82;;;2.97;;
49460;SDS011;35355;49.198;-0.368;2022-07-29T02:25:24;7.15;;;2.88;;
49460;SDS011;35355;49.198;-0.368;2022-07-29T02:27:51;9.07;;;2.75;;
49460;SDS011;35355;49.198;-0.368;2022-07-29T02:30:18;5.18;;;2.22;;
49460;SDS011;35355;49.198;-0.368;2022-07-29T02:32:46;4.22;;;2.50;;
49460;SDS011;35355;49.198;-0.368;2022-07-29T02:35:14;4.10;;;2.80;;
49460;SDS011;35355;49.198;-0.368;2022-07-29T02:37:41;10.02;;;3.03;;
49460;SDS011;35355;49.198;-0.368;2022-07-29T02:40:09;6.40;;;2.53;;
49460;SDS011;35355;49.198;-0.368;2022-07-29T02:42:38;8.93;;;2.95;;
49460;SDS011;35355;49.198;-0.368;2022-07-29T02:45:06;8.02;;;2.22;;
49460;SDS011;35355;49.198;-0.368;2022-07-29T02:47:36;4.85;;;1.90;;
49460;SDS011;35355;49.198;-0.368;2022-07-29T02:52:54;4.28;;;2.63;;
49460;SDS011;35355;49.198;-0.368;2022-07-29T02:55:34;4.97;;;1.80;;
49460;SDS011;35355;49.198;-0.368;2022-07-29T02:58:01;7.43;;;2.20;;
49460;SDS011;35355;49.198;-0.368;2022-07-29T03:00:34;9.10;;;2.20;;
49460;SDS011;35355;49.198;-0.368;2022-07-29T03:03:03;6.05;;;2.72;;
49460;SDS011;35355;49.198;-0.368;2022-07-29T03:05:32;5.90;;;1.75;;
49460;SDS011;35355;49.198;-0.368;2022-07-29T03:08:00;3.95;;;1.65;;
49460;SDS011;35355;49.198;-0.368;2022-07-29T03:10:27;2.47;;;1.50;;
49460;SDS011;35355;49.198;-0.368;2022-07-29T03:12:54;2.80;;;1.77;;
49460;SDS011;35355;49.198;-0.368;2022-07-29T03:15:21;4.75;;;1.70;;
49460;SDS011;35355;49.198;-0.368;2022-07-29T03:17:46;3.58;;;1.73;;
49460;SDS011;35355;49.198;-0.368;2022-07-29T03:20:12;5.35;;;1.60;;
49460;SDS011;35355;49.198;-0.368;2022-07-29T03:22:39;3.72;;;1.40;;
49460;SDS011;35355;49.198;-0.368;2022-07-29T03:25:09;6.85;;;1.92;;
49460;SDS011;35355;49.198;-0.368;2022-07-29T03:27:36;8.43;;;2.15;;
49460;SDS011;35355;49.198;-0.368;2022-07-29T03:30:01;4.60;;;2.22;;
49460;SDS011;35355;49.198;-0.368;2022-07-29T03:32:27;11.52;;;2.20;;
49460;SDS011;35355;49.198;-0.368;2022-07-29T03:34:53;4.30;;;1.83;;
49460;SDS011;35355;49.198;-0.368;2022-07-29T03:37:19;4.47;;;1.70;;
49460;SDS011;35355;49.198;-0.368;2022-07-29T03:39:44;6.32;;;1.88;;
49460;SDS011;35355;49.198;-0.368;2022-07-29T03:42:13;7.53;;;1.70;;
49460;SDS011;35355;49.198;-0.368;2022-07-29T03:44:42;6.90;;;2.03;;
49460;SDS011;35355;49.198;-0.368;2022-07-29T03:47:10;3.88;;;1.50;;
49460;SDS011;35355;49.198;-0.368;2022-07-29T03:49:40;3.38;;;1.73;;
49460;SDS011;35355;49.198;-0.368;2022-07-29T03:52:07;6.13;;;1.83;;
49460;SDS011;35355;49.198;-0.368;2022-07-29T03:54:34;5.20;;;1.63;;
49460;SDS011;35355;49.198;-0.368;2022-07-29T03:57:01;2.95;;;1.60;;
49460;SDS011;35355;49.198;-0.368;2022-07-29T03:59:28;3.35;;;1.52;;
49460;SDS011;35355;49.198;-0.368;2022-07-29T04:01:57;4.35;;;1.60;;
49460;SDS011;35355;49.198;-0.368;2022-07-29T04:04:24;2.67;;;1.77;;
49460;SDS011;35355;49.198;-0.368;2022-07-29T04:06:50;4.13;;;1.67;;
49460;SDS011;35355;49.198;-0.368;2022-07-29T04:09:16;3.63;;;2.28;;
49460;SDS011;35355;49.198;-0.368;2022-07-29T04:11:42;8.00;;;1.95;;
49460;SDS011;35355;49.198;-0.368;2022-07-29T04:14:07;4.38;;;1.67;;
49460;SDS011;35355;49.198;-0.368;2022-07-29T04:16:33;3.20;;;1.88;;
49460;SDS011;35355;49.198;-0.368;2022-07-29T04:18:59;4.35;;;2.33;;
49460;SDS011;35355;49.198;-0.368;2022-07-29T04:21:24;3.75;;;2.20;;
49460;SDS011;35355;49.198;-0.368;2022-07-29T04:23:50;1.92;;;1.52;;
49460;SDS011;35355;49.198;-0.368;2022-07-29T04:26:17;9.18;;;2.60;;
49460;SDS011;35355;49.198;-0.368;2022-07-29T04:28:43;4.57;;;1.90;;
49460;SDS011;35355;49.198;-0.368;2022-07-29T04:31:09;5.97;;;1.65;;
49460;SDS011;35355;49.198;-0.368;2022-07-29T04:33:35;5.97;;;1.90;;
49460;SDS011;35355;49.198;-0.368;2022-07-29T04:36:01;4.07;;;2.10;;
49460;SDS011;35355;49.198;-0.368;2022-07-29T04:38:27;3.88;;;2.00;;
49460;SDS011;35355;49.198;-0.368;2022-07-29T04:40:55;5.63;;;1.80;;
49460;SDS011;35355;49.198;-0.368;2022-07-29T04:43:24;15.60;;;1.65;;
49460;SDS011;35355;49.198;-0.368;2022-07-29T04:45:50;3.75;;;1.48;;
49460;SDS011;35355;49.198;-0.368;2022-07-29T04:48:15;4.50;;;1.90;;
49460;SDS011;35355;49.198;-0.368;2022-07-29T04:50:41;4.35;;;1.83;;
49460;SDS011;35355;49.198;-0.368;2022-07-29T04:53:07;5.30;;;1.73;;
49460;SDS011;35355;49.198;-0.368;2022-07-29T04:55:33;3.50;;;1.85;;
49460;SDS011;35355;49.198;-0.368;2022-07-29T04:57:59;3.70;;;1.67;;
49460;SDS011;35355;49.198;-0.368;2022-07-29T05:00:27;4.47;;;1.60;;
49460;SDS011;35355;49.198;-0.368;2022-07-29T05:02:59;3.80;;;1.60;;
49460;SDS011;35355;49.198;-0.368;2022-07-29T05:05:24;5.85;;;2.20;;
49460;SDS011;35355;49.198;-0.368;2022-07-29T05:07:50;4.72;;;2.35;;
49460;SDS011;35355;49.198;-0.368;2022-07-29T05:10:16;6.45;;;2.15;;
49460;SDS011;35355;49.198;-0.368;2022-07-29T05:12:43;3.40;;;1.50;;
49460;SDS011;35355;49.198;-0.368;2022-07-29T05:15:09;4.65;;;1.70;;
49460;SDS011;35355;49.198;-0.368;2022-07-29T05:17:35;4.78;;;2.10;;
49460;SDS011;35355;49.198;-0.368;2022-07-29T05:20:04;4.82;;;2.00;;
49460;SDS011;35355;49.198;-0.368;2022-07-29T05:41:31;12.38;;;3.30;;
49460;SDS011;35355;49.198;-0.368;2022-07-29T05:43:57;4.93;;;2.67;;
49460;SDS011;35355;49.198;-0.368;2022-07-29T05:46:23;23.83;;;3.88;;
49460;SDS011;35355;49.198;-0.368;2022-07-29T05:48:49;14.50;;;3.75;;
49460;SDS011;35355;49.198;-0.368;2022-07-29T05:51:14;9.20;;;3.08;;
49460;SDS011;35355;49.198;-0.368;2022-07-29T05:53:40;8.75;;;3.55;;
49460;SDS011;35355;49.198;-0.368;2022-07-29T05:56:06;8.25;;;2.83;;
49460;SDS011;35355;49.198;-0.368;2022-07-29T05:58:32;7.15;;;3.10;;
49460;SDS011;35355;49.198;-0.368;2022-07-29T06:00:58;5.53;;;2.50;;
49460;SDS011;35355;49.198;-0.368;2022-07-29T06:03:26;4.78;;;2.60;;
49460;SDS011;35355;49.198;-0.368;2022-07-29T06:05:54;5.28;;;3.10;;
49460;SDS011;35355;49.198;-0.368;2022-07-29T06:08:19;6.82;;;2.80;;
49460;SDS011;35355;49.198;-0.368;2022-07-29T06:10:45;8.95;;;3.25;;
49460;SDS011;35355;49.198;-0.368;2022-07-29T06:13:11;6.88;;;2.45;;
49460;SDS011;35355;49.198;-0.368;2022-07-29T06:15:37;8.80;;;2.85;;
49460;SDS011;35355;49.198;-0.368;2022-07-29T06:18:03;5.97;;;2.78;;
49460;SDS011;35355;49.198;-0.368;2022-07-29T06:20:29;8.10;;;3.03;;
49460;SDS011;35355;49.198;-0.368;2022-07-29T06:22:56;9.60;;;3.17;;
49460;SDS011;35355;49.198;-0.368;2022-07-29T06:25:22;7.30;;;3.35;;
49460;SDS011;35355;49.198;-0.368;2022-07-29T06:27:48;6.68;;;2.47;;
49460;SDS011;35355;49.198;-0.368;2022-07-29T06:30:13;5.57;;;2.20;;
49460;SDS011;35355;49.198;-0.368;2022-07-29T06:32:39;7.35;;;2.88;;
49460;SDS011;35355;49.198;-0.368;2022-07-29T06:35:05;11.00;;;2.55;;
49460;SDS011;35355;49.198;-0.368;2022-07-29T06:37:31;5.47;;;2.63;;
49460;SDS011;35355;49.198;-0.368;2022-07-29T06:39:57;7.10;;;2.75;;
49460;SDS011;35355;49.198;-0.368;2022-07-29T06:42:44;7.80;;;2.50;;
49460;SDS011;35355;49.198;-0.368;2022-07-29T06:45:10;5.13;;;2.58;;
49460;SDS011;35355;49.198;-0.368;2022-07-29T06:47:36;6.68;;;2.90;;
49460;SDS011;35355;49.198;-0.368;2022-07-29T06:50:03;8.95;;;3.05;;
49460;SDS011;35355;49.198;-0.368;2022-07-29T06:52:29;6.07;;;2.47;;
49460;SDS011;35355;49.198;-0.368;2022-07-29T06:54:56;7.18;;;2.85;;
49460;SDS011;35355;49.198;-0.368;2022-07-29T06:57:21;5.22;;;2.15;;
49460;SDS011;35355;49.198;-0.368;2022-07-29T06:59:47;13.15;;;3.17;;
49460;SDS011;35355;49.198;-0.368;2022-07-29T07:02:13;7.65;;;2.38;;
49460;SDS011;35355;49.198;-0.368;2022-07-29T07:04:39;13.07;;;2.28;;
49460;SDS011;35355;49.198;-0.368;2022-07-29T07:07:05;5.70;;;2.00;;
49460;SDS011;35355;49.198;-0.368;2022-07-29T07:09:30;8.75;;;1.88;;
49460;SDS011;35355;49.198;-0.368;2022-07-29T07:11:56;6.40;;;1.67;;
49460;SDS011;35355;49.198;-0.368;2022-07-29T07:14:23;6.00;;;1.90;;
49460;SDS011;35355;49.198;-0.368;2022-07-29T07:16:48;5.32;;;1.67;;
49460;SDS011;35355;49.198;-0.368;2022-07-29T07:19:14;10.52;;;2.42;;
49460;SDS011;35355;49.198;-0.368;2022-07-29T07:21:41;7.40;;;2.40;;
49460;SDS011;35355;49.198;-0.368;2022-07-29T07:24:07;4.65;;;1.60;;
49460;SDS011;35355;49.198;-0.368;2022-07-29T07:26:33;7.88;;;1.77;;
49460;SDS011;35355;49.198;-0.368;2022-07-29T07:28:58;6.68;;;1.52;;
49460;SDS011;35355;49.198;-0.368;2022-07-29T07:31:25;4.63;;;1.10;;
49460;SDS011;35355;49.198;-0.368;2022-07-29T07:33:51;6.40;;;2.15;;
49460;SDS011;35355;49.198;-0.368;2022-07-29T07:36:18;4.45;;;1.27;;
49460;SDS011;35355;49.198;-0.368;2022-07-29T07:38:44;7.10;;;1.15;;
49460;SDS011;35355;49.198;-0.368;2022-07-29T07:41:10;3.55;;;1.38;;
49460;SDS011;35355;49.198;-0.368;2022-07-29T07:43:36;5.75;;;0.90;;
49460;SDS011;35355;49.198;-0.368;2022-07-29T07:46:02;5.85;;;1.15;;
49460;SDS011;35355;49.198;-0.368;2022-07-29T07:48:27;2.53;;;0.68;;
49460;SDS011;35355;49.198;-0.368;2022-07-29T07:50:53;2.63;;;1.40;;
49460;SDS011;35355;49.198;-0.368;2022-07-29T07:53:19;5.53;;;1.40;;
49460;SDS011;35355;49.198;-0.368;2022-07-29T07:55:44;6.28;;;1.00;;
49460;SDS011;35355;49.198;-0.368;2022-07-29T07:58:10;3.33;;;1.00;;
49460;SDS011;35355;49.198;-0.368;2022-07-29T08:00:36;4.78;;;1.48;;
49460;SDS011;35355;49.198;-0.368;2022-07-29T08:03:02;1.77;;;0.70;;
49460;SDS011;35355;49.198;-0.368;2022-07-29T08:05:29;8.60;;;1.42;;
49460;SDS011;35355;49.198;-0.368;2022-07-29T08:07:55;3.75;;;1.05;;
49460;SDS011;35355;49.198;-0.368;2022-07-29T08:10:20;4.72;;;0.88;;
49460;SDS011;35355;49.198;-0.368;2022-07-29T08:13:06;5.03;;;1.00;;
49460;SDS011;35355;49.198;-0.368;2022-07-29T08:15:33;14.20;;;1.42;;
49460;SDS011;35355;49.198;-0.368;2022-07-29T08:17:59;4.25;;;1.05;;
49460;SDS011;35355;49.198;-0.368;2022-07-29T08:20:25;6.30;;;1.58;;
49460;SDS011;35355;49.198;-0.368;2022-07-29T08:22:51;3.65;;;1.35;;
49460;SDS011;35355;49.198;-0.368;2022-07-29T08:25:17;6.88;;;1.25;;
49460;SDS011;35355;49.198;-0.368;2022-07-29T08:27:45;6.75;;;1.23;;
49460;SDS011;35355;49.198;-0.368;2022-07-29T08:30:12;3.90;;;1.45;;
49460;SDS011;35355;49.198;-0.368;2022-07-29T08:32:38;8.57;;;1.55;;
49460;SDS011;35355;49.198;-0.368;2022-07-29T08:35:04;5.55;;;1.35;;
49460;SDS011;35355;49.198;-0.368;2022-07-29T08:37:30;7.03;;;1.70;;
49460;SDS011;35355;49.198;-0.368;2022-07-29T08:39:56;7.75;;;1.55;;
49460;SDS011;35355;49.198;-0.368;2022-07-29T08:42:22;6.03;;;1.90;;
49460;SDS011;35355;49.198;-0.368;2022-07-29T08:44:48;9.63;;;1.92;;
49460;SDS011;35355;49.198;-0.368;2022-07-29T08:47:15;13.05;;;2.05;;
49460;SDS011;35355;49.198;-0.368;2022-07-29T08:49:42;13.02;;;3.05;;
49460;SDS011;35355;49.198;-0.368;2022-07-29T08:52:09;12.95;;;2.40;;
49460;SDS011;35355;49.198;-0.368;2022-07-29T08:54:36;8.52;;;1.35;;
49460;SDS011;35355;49.198;-0.368;2022-07-29T08:57:03;12.63;;;1.75;;
49460;SDS011;35355;49.198;-0.368;2022-07-29T08:59:30;7.88;;;1.70;;
49460;SDS011;35355;49.198;-0.368;2022-07-29T09:02:00;15.93;;;2.20;;
49460;SDS011;35355;49.198;-0.368;2022-07-29T09:04:27;10.07;;;1.98;;
49460;SDS011;35355;49.198;-0.368;2022-07-29T09:07:00;9.77;;;1.80;;
49460;SDS011;35355;49.198;-0.368;2022-07-29T09:09:29;7.80;;;2.13;;
49460;SDS011;35355;49.198;-0.368;2022-07-29T09:11:58;10.13;;;1.50;;
49460;SDS011;35355;49.198;-0.368;2022-07-29T09:14:25;11.90;;;1.50;;
49460;SDS011;35355;49.198;-0.368;2022-07-29T09:16:54;11.98;;;1.50;;
49460;SDS011;35355;49.198;-0.368;2022-07-29T09:19:31;8.38;;;1.60;;
49460;SDS011;35355;49.198;-0.368;2022-07-29T09:22:02;4.97;;;1.50;;
49460;SDS011;35355;49.198;-0.368;2022-07-29T09:24:40;6.47;;;1.33;;
49460;SDS011;35355;49.198;-0.368;2022-07-29T09:27:18;7.38;;;0.88;;
49460;SDS011;35355;49.198;-0.368;2022-07-29T09:29:57;4.07;;;1.00;;
49460;SDS011;35355;49.198;-0.368;2022-07-29T09:32:59;4.15;;;1.10;;
49460;SDS011;35355;49.198;-0.368;2022-07-29T09:35:26;5.95;;;1.38;;
49460;SDS011;35355;49.198;-0.368;2022-07-29T09:37:53;9.57;;;1.27;;
49460;SDS011;35355;49.198;-0.368;2022-07-29T09:40:26;5.80;;;1.73;;
49460;SDS011;35355;49.198;-0.368;2022-07-29T09:42:53;7.13;;;1.05;;
49460;SDS011;35355;49.198;-0.368;2022-07-29T09:45:27;6.25;;;1.02;;
49460;SDS011;35355;49.198;-0.368;2022-07-29T09:47:57;6.15;;;1.10;;
49460;SDS011;35355;49.198;-0.368;2022-07-29T09:50:37;6.07;;;1.50;;
49460;SDS011;35355;49.198;-0.368;2022-07-29T09:53:04;9.60;;;1.52;;
49460;SDS011;35355;49.198;-0.368;2022-07-29T09:55:29;8.45;;;0.90;;
49460;SDS011;35355;49.198;-0.368;2022-07-29T09:57:56;2.60;;;0.63;;
49460;SDS011;35355;49.198;-0.368;2022-07-29T10:00:42;6.75;;;1.00;;
49460;SDS011;35355;49.198;-0.368;2022-07-29T10:03:08;6.68;;;0.73;;
49460;SDS011;35355;49.198;-0.368;2022-07-29T10:05:34;3.38;;;0.80;;
49460;SDS011;35355;49.198;-0.368;2022-07-29T10:08:00;12.50;;;1.65;;
49460;SDS011;35355;49.198;-0.368;2022-07-29T10:10:31;6.22;;;0.98;;
49460;SDS011;35355;49.198;-0.368;2022-07-29T10:13:01;6.72;;;1.30;;
49460;SDS011;35355;49.198;-0.368;2022-07-29T10:15:31;5.28;;;1.02;;
49460;SDS011;35355;49.198;-0.368;2022-07-29T10:17:58;6.30;;;0.70;;
49460;SDS011;35355;49.198;-0.368;2022-07-29T10:20:25;9.00;;;1.63;;
49460;SDS011;35355;49.198;-0.368;2022-07-29T10:22:52;4.78;;;0.80;;
49460;SDS011;35355;49.198;-0.368;2022-07-29T10:25:19;7.40;;;1.25;;
49460;SDS011;35355;49.198;-0.368;2022-07-29T10:27:46;8.20;;;1.02;;
49460;SDS011;35355;49.198;-0.368;2022-07-29T10:30:13;5.80;;;1.27;;
49460;SDS011;35355;49.198;-0.368;2022-07-29T10:35:33;4.32;;;1.08;;
49460;SDS011;35355;49.198;-0.368;2022-07-29T10:43:51;4.32;;;0.85;;
49460;SDS011;35355;49.198;-0.368;2022-07-29T10:46:26;3.50;;;0.82;;
49460;SDS011;35355;49.198;-0.368;2022-07-29T10:54:36;6.03;;;1.02;;
49460;SDS011;35355;49.198;-0.368;2022-07-29T10:59:42;4.13;;;0.65;;
49460;SDS011;35355;49.198;-0.368;2022-07-29T11:02:54;4.75;;;0.75;;
49460;SDS011;35355;49.198;-0.368;2022-07-29T11:07:20;4.57;;;1.05;;
49460;SDS011;35355;49.198;-0.368;2022-07-29T11:15:06;5.30;;;0.80;;
49460;SDS011;35355;49.198;-0.368;2022-07-29T11:20:41;2.58;;;0.82;;
49460;SDS011;35355;49.198;-0.368;2022-07-29T11:23:18;4.72;;;1.00;;
49460;SDS011;35355;49.198;-0.368;2022-07-29T11:28:50;3.47;;;1.02;;
49460;SDS011;35355;49.198;-0.368;2022-07-29T11:34:16;8.13;;;0.80;;
49460;SDS011;35355;49.198;-0.368;2022-07-29T11:47:25;6.72;;;0.90;;
49460;SDS011;35355;49.198;-0.368;2022-07-29T11:49:53;2.08;;;0.82;;
49460;SDS011;35355;49.198;-0.368;2022-07-29T11:52:22;8.27;;;1.45;;
49460;SDS011;35355;49.198;-0.368;2022-07-29T11:54:48;1.90;;;0.80;;
49460;SDS011;35355;49.198;-0.368;2022-07-29T11:57:19;5.32;;;0.80;;
49460;SDS011;35355;49.198;-0.368;2022-07-29T11:59:46;3.20;;;0.55;;
49460;SDS011;35355;49.198;-0.368;2022-07-29T12:02:13;5.65;;;0.90;;
49460;SDS011;35355;49.198;-0.368;2022-07-29T12:04:53;4.03;;;1.20;;
49460;SDS011;35355;49.198;-0.368;2022-07-29T12:07:28;3.00;;;0.63;;
49460;SDS011;35355;49.198;-0.368;2022-07-29T12:09:57;4.50;;;0.80;;
49460;SDS011;35355;49.198;-0.368;2022-07-29T12:12:24;5.70;;;1.30;;
49460;SDS011;35355;49.198;-0.368;2022-07-29T12:14:52;6.72;;;1.55;;
49460;SDS011;35355;49.198;-0.368;2022-07-29T12:17:33;3.05;;;0.60;;
49460;SDS011;35355;49.198;-0.368;2022-07-29T12:20:04;1.80;;;0.73;;
49460;SDS011;35355;49.198;-0.368;2022-07-29T12:22:31;3.35;;;0.80;;
49460;SDS011;35355;49.198;-0.368;2022-07-29T12:25:03;5.88;;;1.63;;
49460;SDS011;35355;49.198;-0.368;2022-07-29T12:27:30;4.50;;;1.88;;
49460;SDS011;35355;49.198;-0.368;2022-07-29T12:29:58;6.50;;;0.80;;
49460;SDS011;35355;49.198;-0.368;2022-07-29T12:35:12;4.55;;;1.08;;
49460;SDS011;35355;49.198;-0.368;2022-07-29T12:37:43;7.05;;;1.30;;
49460;SDS011;35355;49.198;-0.368;2022-07-29T12:40:10;4.00;;;1.33;;
49460;SDS011;35355;49.198;-0.368;2022-07-29T12:42:41;3.00;;;1.35;;
49460;SDS011;35355;49.198;-0.368;2022-07-29T12:45:30;8.15;;;2.40;;
49460;SDS011;35355;49.198;-0.368;2022-07-29T12:47:56;3.70;;;1.90;;
49460;SDS011;35355;49.198;-0.368;2022-07-29T12:50:22;4.85;;;1.63;;
49460;SDS011;35355;49.198;-0.368;2022-07-29T12:52:48;5.90;;;1.63;;
49460;SDS011;35355;49.198;-0.368;2022-07-29T12:55:14;5.18;;;1.05;;
49460;SDS011;35355;49.198;-0.368;2022-07-29T12:57:50;3.47;;;1.05;;
49460;SDS011;35355;49.198;-0.368;2022-07-29T13:00:23;3.10;;;1.00;;
49460;SDS011;35355;49.198;-0.368;2022-07-29T13:02:56;2.83;;;1.00;;
49460;SDS011;35355;49.198;-0.368;2022-07-29T13:05:23;6.85;;;1.20;;
49460;SDS011;35355;49.198;-0.368;2022-07-29T13:08:10;3.45;;;1.70;;
49460;SDS011;35355;49.198;-0.368;2022-07-29T13:10:37;3.95;;;1.73;;
49460;SDS011;35355;49.198;-0.368;2022-07-29T13:15:33;3.72;;;1.30;;
49460;SDS011;35355;49.198;-0.368;2022-07-29T13:17:59;3.45;;;1.02;;
49460;SDS011;35355;49.198;-0.368;2022-07-29T13:20:27;4.70;;;1.40;;
49460;SDS011;35355;49.198;-0.368;2022-07-29T13:22:58;6.50;;;1.25;;
49460;SDS011;35355;49.198;-0.368;2022-07-29T13:25:26;4.50;;;1.30;;
49460;SDS011;35355;49.198;-0.368;2022-07-29T13:27:55;2.35;;;0.60;;
49460;SDS011;35355;49.198;-0.368;2022-07-29T13:30:23;2.95;;;0.80;;
49460;SDS011;35355;49.198;-0.368;2022-07-29T13:32:50;3.35;;;0.90;;
49460;SDS011;35355;49.198;-0.368;2022-07-29T13:35:17;4.35;;;1.23;;
49460;SDS011;35355;49.198;-0.368;2022-07-29T13:37:44;5.93;;;1.20;;
49460;SDS011;35355;49.198;-0.368;2022-07-29T13:40:10;6.63;;;1.00;;
49460;SDS011;35355;49.198;-0.368;2022-07-29T13:42:36;3.65;;;0.80;;
49460;SDS011;35355;49.198;-0.368;2022-07-29T13:45:02;4.30;;;0.60;;
49460;SDS011;35355;49.198;-0.368;2022-07-29T13:47:29;5.55;;;0.80;;
49460;SDS011;35355;49.198;-0.368;2022-07-29T13:49:55;5.07;;;0.93;;
49460;SDS011;35355;49.198;-0.368;2022-07-29T13:52:21;6.65;;;1.13;;
49460;SDS011;35355;49.198;-0.368;2022-07-29T14:11:39;3.95;;;0.95;;
49460;SDS011;35355;49.198;-0.368;2022-07-29T14:14:05;5.70;;;0.80;;
49460;SDS011;35355;49.198;-0.368;2022-07-29T14:16:31;4.55;;;0.82;;
49460;SDS011;35355;49.198;-0.368;2022-07-29T14:18:57;2.40;;;0.77;;
49460;SDS011;35355;49.198;-0.368;2022-07-29T14:21:23;3.97;;;0.75;;
49460;SDS011;35355;49.198;-0.368;2022-07-29T14:23:48;2.60;;;0.88;;
49460;SDS011;35355;49.198;-0.368;2022-07-29T14:26:14;2.50;;;0.90;;
49460;SDS011;35355;49.198;-0.368;2022-07-29T14:28:40;4.95;;;0.60;;
49460;SDS011;35355;49.198;-0.368;2022-07-29T14:31:06;4.53;;;1.08;;
49460;SDS011;35355;49.198;-0.368;2022-07-29T14:33:33;2.22;;;0.80;;
49460;SDS011;35355;49.198;-0.368;2022-07-29T14:35:59;5.85;;;0.55;;
49460;SDS011;35355;49.198;-0.368;2022-07-29T14:38:24;3.85;;;0.80;;
49460;SDS011;35355;49.198;-0.368;2022-07-29T14:40:50;4.80;;;0.90;;
49460;SDS011;35355;49.198;-0.368;2022-07-29T14:43:16;4.07;;;1.00;;
49460;SDS011;35355;49.198;-0.368;2022-07-29T14:45:42;3.85;;;0.90;;
49460;SDS011;35355;49.198;-0.368;2022-07-29T14:48:08;4.03;;;0.93;;
49460;SDS011;35355;49.198;-0.368;2022-07-29T14:50:33;4.10;;;1.20;;
49460;SDS011;35355;49.198;-0.368;2022-07-29T14:53:00;3.35;;;0.50;;
49460;SDS011;35355;49.198;-0.368;2022-07-29T14:55:26;2.08;;;0.88;;
49460;SDS011;35355;49.198;-0.368;2022-07-29T14:57:51;4.95;;;0.95;;
49460;SDS011;35355;49.198;-0.368;2022-07-29T15:00:17;8.75;;;0.80;;
49460;SDS011;35355;49.198;-0.368;2022-07-29T15:02:43;4.68;;;1.00;;
49460;SDS011;35355;49.198;-0.368;2022-07-29T15:05:09;5.00;;;0.75;;
49460;SDS011;35355;49.198;-0.368;2022-07-29T15:07:34;4.60;;;1.27;;
49460;SDS011;35355;49.198;-0.368;2022-07-29T15:10:00;4.85;;;0.90;;
49460;SDS011;35355;49.198;-0.368;2022-07-29T15:12:27;9.13;;;1.25;;
49460;SDS011;35355;49.198;-0.368;2022-07-29T15:14:53;2.03;;;0.73;;
49460;SDS011;35355;49.198;-0.368;2022-07-29T15:17:18;3.63;;;0.70;;
49460;SDS011;35355;49.198;-0.368;2022-07-29T15:19:45;2.75;;;0.70;;
49460;SDS011;35355;49.198;-0.368;2022-07-29T15:22:10;7.25;;;0.90;;
49460;SDS011;35355;49.198;-0.368;2022-07-29T15:24:36;4.78;;;1.27;;
49460;SDS011;35355;49.198;-0.368;2022-07-29T15:27:02;5.65;;;0.80;;
49460;SDS011;35355;49.198;-0.368;2022-07-29T15:29:27;5.28;;;0.88;;
49460;SDS011;35355;49.198;-0.368;2022-07-29T15:31:53;7.07;;;0.70;;
49460;SDS011;35355;49.198;-0.368;2022-07-29T15:34:19;4.72;;;0.93;;
49460;SDS011;35355;49.198;-0.368;2022-07-29T15:36:46;7.57;;;1.00;;
49460;SDS011;35355;49.198;-0.368;2022-07-29T15:39:11;4.13;;;0.88;;
49460;SDS011;35355;49.198;-0.368;2022-07-29T15:41:44;3.65;;;0.55;;
49460;SDS011;35355;49.198;-0.368;2022-07-29T15:44:11;8.50;;;0.80;;
49460;SDS011;35355;49.198;-0.368;2022-07-29T15:46:39;6.25;;;0.85;;
49460;SDS011;35355;49.198;-0.368;2022-07-29T15:49:23;3.95;;;0.55;;
49460;SDS011;35355;49.198;-0.368;2022-07-29T15:51:55;6.07;;;1.00;;
49460;SDS011;35355;49.198;-0.368;2022-07-29T15:54:21;4.05;;;0.85;;
49460;SDS011;35355;49.198;-0.368;2022-07-29T15:56:47;5.07;;;0.63;;
49460;SDS011;35355;49.198;-0.368;2022-07-29T15:59:12;1.60;;;0.70;;
49460;SDS011;35355;49.198;-0.368;2022-07-29T16:01:38;5.43;;;0.52;;
49460;SDS011;35355;49.198;-0.368;2022-07-29T16:04:04;6.78;;;1.10;;
49460;SDS011;35355;49.198;-0.368;2022-07-29T16:06:29;3.38;;;0.82;;
49460;SDS011;35355;49.198;-0.368;2022-07-29T16:08:56;8.27;;;0.60;;
49460;SDS011;35355;49.198;-0.368;2022-07-29T16:11:24;4.40;;;0.70;;
49460;SDS011;35355;49.198;-0.368;2022-07-29T16:13:51;1.75;;;0.80;;
49460;SDS011;35355;49.198;-0.368;2022-07-29T16:16:17;5.60;;;0.60;;
49460;SDS011;35355;49.198;-0.368;2022-07-29T16:18:43;6.63;;;0.73;;